Preview of NWS' New Version of Forecast
This preview is not operational and should not be used for support decisions.

Terminal Aerodrome Forecast (TAF)

Issued by National Weather Service (NWS)

                            
000
FTUS42 KMFL 170858 AAA
TAFMIA
TAF AMD
KMIA 170858Z 1709/1812 32003KT P6SM SCT030 BKN070
     FM171900 13007KT P6SM SCT020 BKN050 PROB30 1719/1724 4SM SHRA
      BKN025
     FM180400 35006KT P6SM SCT020 BKN050=